createdAt,value
2018-03-22T00:01:40.980Z,29.77
2018-03-22T00:04:09.082Z,28.33
2018-03-22T00:06:37.185Z,30.48
2018-03-22T00:09:05.280Z,35.10
2018-03-22T00:11:33.390Z,23.83
2018-03-22T00:14:01.489Z,24.45
2018-03-22T00:16:29.574Z,26.83
2018-03-22T00:18:57.679Z,23.62
2018-03-22T00:21:25.845Z,27.92
2018-03-22T00:23:53.943Z,22.37
2018-03-22T00:26:22.041Z,22.45
2018-03-22T00:28:55.111Z,24.60
2018-03-22T00:31:23.214Z,28.98
2018-03-22T00:36:26.960Z,19.02
2018-03-22T00:38:55.066Z,22.55
2018-03-22T00:41:23.191Z,21.12
2018-03-22T00:43:51.297Z,16.92
2018-03-22T00:59:19.430Z,16.83
2018-03-22T01:01:47.528Z,20.27
2018-03-22T01:04:15.630Z,19.75
2018-03-22T01:06:43.748Z,19.65
2018-03-22T01:22:11.883Z,21.85
2018-03-22T01:24:40.288Z,20.95
2018-03-22T01:27:08.623Z,21.98
2018-03-22T01:29:36.733Z,22.95
2018-03-22T01:32:04.845Z,18.37
2018-03-22T01:34:38.481Z,19.27
2018-03-22T01:37:06.597Z,15.90
2018-03-22T01:39:34.691Z,14.05
2018-03-22T01:42:02.804Z,15.05
2018-03-22T01:44:30.913Z,16.70
2018-03-22T01:46:59.011Z,15.70
2018-03-22T01:49:27.147Z,13.88
2018-03-22T01:51:55.217Z,20.00
2018-03-22T01:54:23.353Z,16.60
2018-03-22T01:56:51.447Z,15.88
2018-03-22T01:59:20.471Z,14.25
2018-03-22T02:01:48.621Z,17.98
2018-03-22T02:04:16.722Z,15.02
2018-03-22T02:06:44.835Z,16.73
2018-03-22T02:09:12.943Z,12.45
2018-03-22T02:11:41.855Z,20.48
2018-03-22T02:14:09.957Z,12.57
2018-03-22T02:16:38.055Z,14.15
2018-03-22T02:19:06.187Z,15.95
2018-03-22T02:21:34.294Z,16.70
2018-03-22T02:24:02.400Z,15.45
2018-03-22T02:26:30.543Z,16.05
2018-03-22T02:28:58.688Z,23.00
2018-03-22T02:31:26.794Z,24.33
2018-03-22T02:33:54.890Z,22.27
2018-03-22T02:36:23.000Z,22.08
2018-03-22T02:38:51.251Z,23.27
2018-03-22T02:41:19.368Z,38.80
2018-03-22T02:43:47.540Z,17.73
2018-03-22T02:46:15.630Z,18.40
2018-03-22T02:48:43.743Z,15.15
2018-03-22T02:51:11.988Z,19.65
2018-03-22T02:53:40.046Z,17.83
2018-03-22T02:56:08.156Z,21.83
2018-03-22T02:58:36.593Z,14.57
2018-03-22T03:01:04.698Z,15.18
2018-03-22T03:03:32.797Z,17.33
2018-03-22T03:06:00.915Z,20.65
2018-03-22T03:08:29.014Z,21.23
2018-03-22T03:10:57.413Z,16.23
2018-03-22T03:13:25.524Z,17.95
2018-03-22T03:15:53.613Z,15.27
2018-03-22T03:18:22.449Z,11.18
2018-03-22T03:20:50.566Z,16.20
2018-03-22T03:23:18.706Z,21.58
2018-03-22T03:25:47.689Z,16.37
2018-03-22T03:28:15.810Z,14.93
2018-03-22T03:30:43.916Z,17.45
2018-03-22T03:33:12.031Z,12.75
2018-03-22T03:35:40.195Z,11.90
2018-03-22T03:38:08.833Z,16.23
2018-03-22T03:40:36.926Z,10.50
2018-03-22T03:43:05.063Z,11.68
2018-03-22T03:45:33.151Z,18.58
2018-03-22T03:48:02.006Z,11.18
2018-03-22T03:50:30.113Z,15.77
2018-03-22T03:52:58.224Z,15.77
2018-03-22T03:55:26.335Z,15.90
2018-03-22T03:57:55.385Z,15.55
2018-03-22T04:00:23.478Z,13.10
2018-03-22T04:02:51.583Z,16.50
2018-03-22T04:05:19.697Z,13.38
2018-03-22T04:07:47.794Z,12.05
2018-03-22T04:10:15.899Z,16.00
2018-03-22T04:12:44.008Z,10.57
2018-03-22T04:15:12.107Z,11.73
2018-03-22T04:17:40.200Z,13.27
2018-03-22T04:20:08.301Z,13.35
2018-03-22T04:22:37.365Z,16.35
2018-03-22T04:25:05.445Z,11.38
2018-03-22T04:27:33.583Z,14.20
2018-03-22T04:30:01.673Z,16.33
2018-03-22T04:32:30.479Z,14.40
2018-03-22T04:34:58.577Z,12.90
2018-03-22T04:37:26.705Z,17.23
2018-03-22T04:39:54.789Z,15.50
2018-03-22T04:42:22.891Z,16.42
2018-03-22T04:44:50.998Z,14.02
2018-03-22T04:47:20.350Z,10.65
2018-03-22T04:49:48.454Z,13.27
2018-03-22T04:52:16.563Z,15.13
2018-03-22T04:54:45.295Z,13.85
2018-03-22T04:57:13.393Z,11.40
2018-03-22T04:59:41.549Z,12.37
2018-03-22T05:02:09.675Z,10.15
2018-03-22T05:04:37.773Z,10.95
2018-03-22T05:07:05.866Z,15.75
2018-03-22T05:09:33.967Z,10.60
2018-03-22T05:12:02.942Z,10.48
2018-03-22T05:14:31.083Z,14.25
2018-03-22T05:16:59.161Z,9.27
2018-03-22T05:19:27.246Z,7.62
2018-03-22T05:21:55.367Z,12.35
2018-03-22T05:24:23.448Z,8.50
2018-03-22T05:26:51.539Z,11.43
2018-03-22T05:29:19.644Z,6.80
2018-03-22T05:31:47.741Z,9.38
2018-03-22T05:34:15.832Z,7.70
2018-03-22T05:49:43.950Z,9.50
2018-03-22T05:52:12.085Z,8.90
2018-03-22T05:54:40.162Z,9.07
2018-03-22T05:57:08.279Z,7.85
2018-03-22T05:59:36.386Z,9.43
2018-03-22T06:02:04.487Z,10.68
2018-03-22T06:04:32.689Z,11.25
2018-03-22T06:07:00.761Z,9.40
2018-03-22T06:09:28.860Z,11.90
2018-03-22T06:11:57.003Z,11.45
2018-03-22T06:14:25.104Z,12.57
2018-03-22T06:16:53.179Z,12.57
2018-03-22T06:19:21.610Z,13.35
2018-03-22T06:21:49.935Z,15.65
2018-03-22T06:24:18.038Z,12.63
2018-03-22T06:26:46.155Z,12.57
2018-03-22T06:29:14.250Z,16.05
2018-03-22T06:31:42.345Z,14.25
2018-03-22T06:34:10.491Z,16.50
2018-03-22T06:36:38.592Z,16.85
2018-03-22T06:39:06.702Z,13.15
2018-03-22T06:41:34.840Z,15.07
2018-03-22T06:44:02.940Z,12.70
2018-03-22T06:46:31.038Z,16.00
2018-03-22T06:48:59.141Z,18.92
2018-03-22T06:51:27.266Z,14.77
2018-03-22T06:53:55.359Z,16.67
2018-03-22T06:56:23.453Z,15.77
2018-03-22T06:58:52.393Z,15.75
2018-03-22T07:01:20.565Z,18.20
2018-03-22T07:03:50.647Z,15.13
2018-03-22T07:06:18.775Z,13.18
2018-03-22T07:08:46.874Z,13.93
2018-03-22T07:11:14.970Z,11.80
2018-03-22T07:13:43.071Z,14.20
2018-03-22T07:16:11.185Z,13.85
2018-03-22T07:18:39.285Z,14.93
2018-03-22T07:21:07.408Z,14.77
2018-03-22T07:23:35.504Z,18.02
2018-03-22T07:39:04.261Z,18.48
2018-03-22T07:41:32.361Z,23.35
2018-03-22T07:44:06.136Z,22.87
2018-03-22T07:46:34.234Z,22.45
2018-03-22T07:49:02.343Z,23.50
2018-03-22T07:51:31.342Z,21.70
2018-03-22T07:53:59.463Z,23.80
2018-03-22T07:56:32.519Z,22.85
2018-03-22T07:59:00.713Z,21.95
2018-03-22T08:01:28.790Z,23.75
2018-03-22T08:03:56.896Z,22.87
2018-03-22T08:06:25.037Z,24.77
2018-03-22T08:08:53.139Z,21.37
2018-03-22T08:11:21.271Z,22.33
2018-03-22T08:13:49.390Z,21.60
2018-03-22T08:16:17.710Z,23.35
2018-03-22T08:18:45.815Z,23.50
2018-03-22T08:21:13.917Z,21.55
2018-03-22T08:23:42.066Z,19.73
2018-03-22T08:26:10.175Z,20.90
2018-03-22T08:28:38.252Z,19.80
2018-03-22T08:31:06.368Z,20.83
2018-03-22T08:33:34.460Z,18.30
2018-03-22T08:36:02.577Z,19.40
2018-03-22T08:38:30.687Z,18.60
2018-03-22T08:41:00.086Z,23.38
2018-03-22T08:43:29.059Z,19.95
2018-03-22T08:45:57.188Z,18.73
2018-03-22T08:48:25.293Z,20.90
2018-03-22T08:50:53.375Z,23.35
2018-03-22T08:53:21.488Z,22.02
2018-03-22T08:55:49.573Z,18.67
2018-03-22T08:58:17.688Z,21.37
2018-03-22T09:00:45.822Z,23.42
2018-03-22T09:16:13.976Z,34.63
2018-03-22T09:18:42.062Z,32.20
2018-03-22T09:21:10.163Z,36.83
2018-03-22T09:23:38.328Z,36.63
2018-03-22T09:26:06.432Z,36.25
2018-03-22T09:28:34.541Z,34.90
2018-03-22T09:31:02.655Z,34.20
2018-03-22T09:33:30.763Z,35.22
2018-03-22T09:35:59.073Z,31.37
2018-03-22T09:38:27.184Z,46.83
2018-03-22T09:40:56.039Z,36.00
2018-03-22T09:43:24.147Z,36.03
2018-03-22T09:45:52.487Z,38.83
2018-03-22T09:48:20.815Z,35.78
2018-03-22T09:50:48.937Z,30.65
2018-03-22T09:53:18.362Z,39.58
2018-03-22T09:55:46.472Z,46.30
2018-03-22T09:58:14.587Z,43.20
2018-03-22T10:00:42.751Z,35.90
2018-03-22T10:03:10.881Z,47.05
2018-03-22T10:05:38.986Z,40.85
2018-03-22T10:08:07.164Z,40.38
2018-03-22T10:10:35.244Z,34.72
2018-03-22T10:13:03.330Z,42.60
2018-03-22T10:15:31.464Z,39.13
2018-03-22T10:17:59.574Z,30.17
2018-03-22T10:20:27.698Z,44.70
2018-03-22T10:22:55.805Z,40.50
2018-03-22T10:25:23.904Z,42.67
2018-03-22T10:27:52.032Z,46.47
2018-03-22T10:30:21.413Z,44.88
2018-03-22T10:32:49.975Z,38.00
2018-03-22T10:35:18.087Z,35.45
2018-03-22T10:37:46.205Z,36.95
2018-03-22T10:40:14.304Z,32.13
2018-03-22T10:42:42.501Z,31.52
2018-03-22T10:45:10.571Z,37.00
2018-03-22T10:47:38.666Z,27.90
2018-03-22T10:50:06.803Z,31.08
2018-03-22T10:52:34.952Z,32.30
2018-03-22T10:55:03.304Z,33.70
2018-03-22T10:57:31.435Z,33.50
2018-03-22T10:59:59.548Z,42.75
2018-03-22T11:02:34.049Z,32.25
2018-03-22T11:05:02.123Z,35.63
2018-03-22T11:07:31.188Z,28.73
2018-03-22T11:09:59.274Z,31.52
2018-03-22T11:12:27.370Z,36.65
2018-03-22T11:14:55.488Z,34.67
2018-03-22T11:17:23.598Z,34.60
2018-03-22T11:19:52.288Z,32.42
2018-03-22T11:22:20.400Z,36.55
2018-03-22T11:24:48.490Z,40.70
2018-03-22T11:27:16.890Z,38.45
2018-03-22T11:29:45.011Z,29.80
2018-03-22T11:32:13.107Z,27.75
2018-03-22T11:34:41.235Z,25.35
2018-03-22T11:37:09.331Z,27.70
2018-03-22T11:39:37.430Z,23.55
2018-03-22T11:42:05.548Z,30.00
2018-03-22T11:44:33.657Z,32.33
2018-03-22T11:47:01.765Z,27.45
2018-03-22T11:49:29.874Z,25.88
2018-03-22T11:51:57.978Z,36.28
2018-03-22T11:54:26.091Z,37.33
2018-03-22T12:09:54.203Z,42.22
2018-03-22T12:12:22.768Z,36.75
2018-03-22T12:14:50.880Z,31.92
2018-03-22T12:17:19.619Z,39.22
2018-03-22T12:19:47.782Z,31.62
2018-03-22T12:22:15.969Z,36.30
2018-03-22T12:24:44.087Z,29.67
2018-03-22T12:27:13.090Z,29.33
2018-03-22T12:29:41.203Z,30.12
2018-03-22T12:32:09.468Z,28.58
2018-03-22T12:34:37.569Z,28.35
2018-03-22T12:37:05.950Z,30.08
2018-03-22T12:39:34.023Z,31.20
2018-03-22T12:42:03.495Z,30.50
2018-03-22T12:44:31.619Z,25.50
2018-03-22T12:47:00.084Z,28.87
2018-03-22T12:49:28.171Z,19.15
2018-03-22T12:51:57.241Z,31.98
2018-03-22T12:54:25.430Z,24.48
2018-03-22T12:56:53.543Z,37.33
2018-03-22T12:59:24.319Z,28.77
2018-03-22T13:01:52.423Z,29.40
2018-03-22T13:04:20.518Z,28.85
2018-03-22T13:06:49.155Z,31.58
2018-03-22T13:09:17.265Z,31.35
2018-03-22T13:11:45.398Z,24.23
2018-03-22T13:27:13.521Z,20.90
2018-03-22T13:29:47.213Z,24.55
2018-03-22T13:32:15.309Z,26.92
2018-03-22T13:34:43.437Z,21.92
2018-03-22T13:37:11.530Z,34.60
2018-03-22T13:39:39.976Z,22.25
2018-03-22T13:42:08.078Z,29.75
2018-03-22T13:44:36.168Z,24.02
2018-03-22T13:47:04.282Z,23.85
2018-03-22T13:49:32.415Z,25.37
2018-03-22T13:52:00.504Z,21.42
2018-03-22T13:54:29.287Z,23.05
2018-03-22T13:56:57.995Z,21.87
2018-03-22T13:59:26.245Z,22.48
2018-03-22T14:01:54.341Z,17.92
2018-03-22T14:04:22.487Z,21.50
2018-03-22T14:06:51.335Z,19.67
2018-03-22T14:09:19.475Z,21.17
2018-03-22T14:11:47.602Z,26.08
2018-03-22T14:14:15.691Z,26.15
2018-03-22T14:16:43.788Z,22.10
2018-03-22T14:19:11.936Z,20.77
2018-03-22T14:21:40.117Z,21.27
2018-03-22T14:24:08.582Z,26.58
2018-03-22T14:26:36.703Z,22.52
2018-03-22T14:29:04.787Z,29.87
2018-03-22T14:31:32.917Z,27.15
2018-03-22T14:34:01.348Z,23.15
2018-03-22T14:36:29.462Z,24.33
2018-03-22T14:38:57.990Z,25.42
2018-03-22T14:41:26.093Z,23.80
2018-03-22T14:43:54.200Z,28.40
2018-03-22T14:46:22.319Z,26.83
2018-03-22T14:48:50.410Z,23.17
2018-03-22T14:51:18.526Z,24.33
2018-03-22T14:53:46.630Z,24.65
2018-03-22T14:56:15.031Z,28.15
2018-03-22T14:58:43.142Z,28.75
2018-03-22T15:01:11.256Z,32.00
2018-03-22T15:03:39.356Z,28.02
2018-03-22T15:06:07.482Z,30.52
2018-03-22T15:08:35.627Z,36.95
2018-03-22T15:11:03.714Z,34.47
2018-03-22T15:13:31.810Z,30.70
2018-03-22T15:15:59.928Z,40.88
2018-03-22T15:18:28.023Z,34.08
2018-03-22T15:20:56.189Z,27.37
2018-03-22T15:23:24.330Z,33.97
2018-03-22T15:25:53.902Z,30.33
2018-03-22T15:28:22.051Z,22.08
2018-03-22T15:30:50.572Z,25.25
2018-03-22T15:33:18.754Z,17.02
2018-03-22T15:35:46.900Z,26.37
2018-03-22T15:38:15.616Z,22.20
2018-03-22T15:40:43.708Z,25.67
2018-03-22T15:43:11.801Z,24.35
2018-03-22T15:45:40.230Z,27.52
2018-03-22T15:48:08.343Z,24.00
2018-03-22T15:50:36.468Z,21.45
2018-03-22T15:53:04.584Z,30.95
2018-03-22T15:55:32.675Z,18.27
2018-03-22T15:58:00.790Z,33.40
2018-03-22T16:00:29.005Z,28.00
2018-03-22T16:02:57.089Z,27.85
2018-03-22T16:05:26.167Z,19.77
2018-03-22T16:07:54.256Z,26.92
2018-03-22T16:10:22.686Z,23.85
2018-03-22T16:12:50.821Z,25.00
2018-03-22T16:15:19.788Z,19.58
2018-03-22T16:17:47.888Z,33.10
2018-03-22T16:20:16.100Z,20.50
2018-03-22T16:22:45.233Z,19.58
2018-03-22T16:25:13.326Z,24.98
2018-03-22T16:27:41.423Z,15.15
2018-03-22T16:30:10.495Z,20.80
2018-03-22T16:32:38.597Z,17.67
2018-03-22T16:35:06.702Z,21.12
2018-03-22T16:37:34.809Z,23.80
2018-03-22T16:40:02.922Z,17.52
2018-03-22T16:42:31.064Z,18.10
2018-03-22T16:45:00.121Z,20.17
2018-03-22T16:47:28.312Z,23.70
2018-03-22T16:49:56.411Z,17.17
2018-03-22T16:52:24.546Z,23.75
2018-03-22T16:54:57.601Z,19.77
2018-03-22T16:57:26.025Z,24.83
2018-03-22T16:59:54.168Z,19.23
2018-03-22T17:02:22.281Z,15.95
2018-03-22T17:04:50.466Z,17.17
2018-03-22T17:07:18.555Z,25.85
2018-03-22T17:09:46.690Z,18.92
2018-03-22T17:12:14.792Z,21.20
2018-03-22T17:14:42.894Z,17.87
2018-03-22T17:17:10.995Z,17.98
2018-03-22T17:19:39.122Z,19.27
2018-03-22T17:22:07.226Z,22.37
2018-03-22T17:24:35.466Z,22.85
2018-03-22T17:27:03.551Z,17.85
2018-03-22T17:39:16.662Z,17.02
2018-03-22T17:41:45.765Z,20.25
2018-03-22T17:44:13.855Z,16.80
2018-03-22T17:46:41.987Z,20.10
2018-03-22T17:49:10.092Z,20.02
2018-03-22T17:51:38.189Z,18.58
2018-03-22T17:54:06.632Z,19.02
2018-03-22T17:56:34.721Z,25.15
2018-03-22T17:59:02.865Z,14.52
2018-03-22T18:01:30.970Z,15.18
2018-03-22T18:03:59.112Z,20.35
2018-03-22T18:06:27.205Z,20.80
2018-03-22T18:08:55.291Z,20.75
2018-03-22T18:11:24.429Z,19.95
2018-03-22T18:13:52.536Z,20.27
2018-03-22T18:16:20.636Z,16.70
2018-03-22T18:18:49.132Z,18.10
2018-03-22T18:21:18.131Z,17.27
2018-03-22T18:23:46.265Z,18.30
2018-03-22T18:26:14.431Z,17.20
2018-03-22T18:28:43.577Z,23.90
2018-03-22T18:31:11.661Z,26.23
2018-03-22T18:33:39.845Z,18.37
2018-03-22T18:36:07.994Z,22.02
2018-03-22T18:38:36.062Z,20.40
2018-03-22T18:41:05.033Z,14.85
2018-03-22T18:43:33.172Z,15.05
2018-03-22T18:46:01.268Z,15.88
2018-03-22T18:48:30.205Z,16.27
2018-03-22T18:50:58.320Z,20.35
2018-03-22T18:53:26.657Z,20.17
2018-03-22T18:55:54.817Z,18.20
2018-03-22T18:58:22.918Z,18.92
2018-03-22T19:00:51.013Z,17.80
2018-03-22T19:03:19.126Z,18.70
2018-03-22T19:05:47.214Z,21.85
2018-03-22T19:08:15.314Z,21.50
2018-03-22T19:10:43.453Z,22.00
2018-03-22T19:13:11.577Z,19.77
2018-03-22T19:15:39.705Z,21.67
2018-03-22T19:18:07.791Z,17.98
2018-03-22T19:20:35.921Z,19.77
2018-03-22T19:23:04.045Z,20.80
2018-03-22T19:25:32.151Z,26.33
2018-03-22T19:28:00.251Z,25.67
2018-03-22T19:30:28.371Z,21.60
2018-03-22T19:42:41.480Z,29.27
2018-03-22T19:45:09.582Z,22.98
2018-03-22T19:47:37.677Z,23.42
2018-03-22T19:50:05.848Z,24.77
2018-03-22T19:52:33.958Z,29.15
2018-03-22T19:55:02.197Z,24.75
2018-03-22T19:57:31.496Z,26.58
2018-03-22T19:59:59.908Z,28.58
2018-03-22T20:02:28.039Z,30.37
2018-03-22T20:04:56.104Z,25.65
2018-03-22T20:07:25.021Z,27.98
2018-03-22T20:09:53.179Z,26.60
2018-03-22T20:12:21.294Z,26.42
2018-03-22T20:14:49.393Z,28.52
2018-03-22T20:17:17.524Z,29.30
2018-03-22T20:19:45.634Z,32.70
2018-03-22T20:22:13.752Z,25.55
2018-03-22T20:24:41.918Z,25.02
2018-03-22T20:27:10.019Z,29.67
2018-03-22T20:29:38.842Z,31.08
2018-03-22T20:32:07.003Z,31.45
2018-03-22T20:34:35.129Z,39.08
2018-03-22T20:37:03.210Z,39.25
2018-03-22T20:39:31.326Z,43.83
2018-03-22T20:41:59.430Z,41.47
2018-03-22T20:44:27.571Z,37.05
2018-03-22T20:46:55.667Z,42.45
2018-03-22T20:49:23.943Z,45.10
2018-03-22T20:51:52.036Z,47.97
2018-03-22T20:54:20.183Z,55.22
2018-03-22T20:56:48.917Z,44.70
2018-03-22T20:59:17.043Z,42.53
2018-03-22T21:01:45.150Z,51.25
2018-03-22T21:04:13.317Z,52.75
2018-03-22T21:06:41.414Z,49.45
2018-03-22T21:09:10.402Z,38.28
2018-03-22T21:11:38.516Z,48.10
2018-03-22T21:14:06.630Z,43.15
2018-03-22T21:16:34.740Z,44.55
2018-03-22T21:19:02.875Z,40.97
2018-03-22T21:21:31.129Z,62.35
2018-03-22T21:23:59.213Z,46.85
2018-03-22T21:26:27.379Z,55.80
2018-03-22T21:28:55.531Z,51.67
2018-03-22T21:31:24.418Z,49.72
2018-03-22T21:33:57.529Z,50.70
2018-03-22T21:36:25.636Z,45.78
2018-03-22T21:38:53.755Z,47.20
2018-03-22T21:41:22.696Z,50.30
2018-03-22T21:44:02.574Z,54.08
2018-03-22T21:46:30.715Z,55.22
2018-03-22T21:48:58.828Z,56.03
2018-03-22T21:51:29.084Z,52.70
2018-03-22T21:53:58.130Z,56.13
2018-03-22T21:56:26.256Z,55.50
2018-03-22T21:58:54.721Z,59.40
2018-03-22T22:01:22.822Z,57.72
2018-03-22T22:03:50.926Z,61.53
2018-03-22T22:06:19.030Z,55.70
2018-03-22T22:08:47.142Z,55.65
2018-03-22T22:11:16.155Z,55.88
2018-03-22T22:13:44.272Z,58.42
2018-03-22T22:16:12.422Z,58.05
2018-03-22T22:18:40.522Z,50.78
2018-03-22T22:21:08.972Z,56.80
2018-03-22T22:23:37.066Z,60.85
2018-03-22T22:26:05.193Z,54.22
2018-03-22T22:28:34.244Z,59.63
2018-03-22T22:31:02.349Z,50.90
2018-03-22T22:33:30.441Z,50.75
2018-03-22T22:36:00.357Z,56.75
2018-03-22T22:38:29.144Z,51.58
2018-03-22T22:40:57.240Z,50.20
2018-03-22T22:43:25.376Z,47.30
2018-03-22T22:45:53.550Z,47.33
2018-03-22T22:48:21.694Z,49.00
2018-03-22T22:50:49.807Z,50.38
2018-03-22T22:53:18.283Z,48.55
2018-03-22T22:55:46.382Z,50.85
2018-03-22T22:58:14.498Z,43.33
2018-03-22T23:00:42.914Z,50.92
2018-03-22T23:03:10.982Z,60.12
2018-03-22T23:05:39.632Z,30.33
2018-03-22T23:08:07.826Z,43.92
2018-03-22T23:10:36.732Z,42.70
2018-03-22T23:13:10.294Z,40.53
2018-03-22T23:15:39.287Z,42.22
2018-03-22T23:18:07.774Z,40.63
2018-03-22T23:20:36.690Z,37.63
2018-03-22T23:23:04.940Z,42.95
2018-03-22T23:25:33.652Z,34.58
2018-03-22T23:28:01.824Z,36.95
2018-03-22T23:30:29.980Z,42.17
2018-03-22T23:32:58.076Z,35.80
2018-03-22T23:35:26.286Z,33.65
2018-03-22T23:37:54.609Z,39.67
2018-03-22T23:40:22.771Z,38.28
2018-03-22T23:42:50.886Z,40.92
2018-03-22T23:45:18.978Z,50.60
2018-03-22T23:47:47.530Z,39.20
2018-03-22T23:50:15.643Z,40.28
2018-03-22T23:52:44.030Z,39.10
2018-03-22T23:55:12.915Z,41.70
2018-03-22T23:57:41.022Z,42.30
